createdAt,value
2023-01-17T00:02:54.138Z,17.87
2023-01-17T00:08:14.572Z,17.84
2023-01-17T00:13:16.359Z,17.91
2023-01-17T00:18:18.043Z,17.88
2023-01-17T00:23:43.352Z,17.85
2023-01-17T00:28:45.953Z,17.84
2023-01-17T00:33:47.835Z,17.83
2023-01-17T00:38:49.461Z,17.84
2023-01-17T00:44:09.743Z,17.81
2023-01-17T00:49:29.977Z,17.81
2023-01-17T00:54:50.203Z,17.79
2023-01-17T01:00:10.456Z,17.80
2023-01-17T01:05:32.297Z,17.80
2023-01-17T01:10:52.565Z,17.80
2023-01-17T01:16:13.297Z,17.81
2023-01-17T01:21:33.257Z,17.80
2023-01-17T01:26:53.615Z,17.81
2023-01-17T01:32:13.861Z,17.78
2023-01-17T01:37:15.521Z,17.78
2023-01-17T01:42:17.596Z,17.77
2023-01-17T01:47:36.284Z,17.73
2023-01-17T01:52:44.858Z,17.76
2023-01-17T01:57:50.695Z,17.76
2023-01-17T02:02:54.892Z,17.78
2023-01-17T02:08:08.794Z,17.74
2023-01-17T02:13:12.862Z,17.78
2023-01-17T02:18:37.473Z,17.77
2023-01-17T02:23:44.316Z,17.77
2023-01-17T02:28:51.779Z,17.80
2023-01-17T02:34:06.060Z,17.80
2023-01-17T02:39:24.408Z,17.75
2023-01-17T02:44:26.109Z,17.73
2023-01-17T02:49:32.104Z,17.73
2023-01-17T02:54:54.054Z,17.73
2023-01-17T03:00:04.906Z,17.74
2023-01-17T03:05:21.924Z,17.73
2023-01-17T03:10:24.304Z,17.73
2023-01-17T03:15:25.951Z,17.75
2023-01-17T03:20:27.697Z,17.74
2023-01-17T03:25:29.500Z,17.74
2023-01-17T03:30:31.181Z,17.78
2023-01-17T03:35:32.849Z,17.71
2023-01-17T03:40:34.471Z,17.71
2023-01-17T03:45:36.301Z,17.74
2023-01-17T03:50:38.298Z,17.70
2023-01-17T03:55:40.233Z,17.68
2023-01-17T04:00:42.550Z,17.71
2023-01-17T04:05:44.213Z,17.75
2023-01-17T04:10:45.906Z,17.71
2023-01-17T04:15:50.320Z,17.66
2023-01-17T04:20:52.594Z,17.71
2023-01-17T04:25:54.255Z,17.71
2023-01-17T04:31:00.300Z,17.72
2023-01-17T04:36:01.999Z,17.70
2023-01-17T04:41:03.675Z,17.71
2023-01-17T04:46:10.218Z,17.71
2023-01-17T04:51:12.416Z,17.70
2023-01-17T04:56:14.377Z,17.71
2023-01-17T05:01:16.071Z,17.71
2023-01-17T05:06:17.770Z,17.68
2023-01-17T05:11:19.513Z,17.68
2023-01-17T05:16:21.224Z,17.67
2023-01-17T05:21:23.129Z,17.71
2023-01-17T05:26:24.878Z,17.66
2023-01-17T05:31:26.648Z,17.66
2023-01-17T05:36:28.412Z,17.70
2023-01-17T05:41:30.107Z,17.70
2023-01-17T05:46:31.785Z,17.64
2023-01-17T05:51:33.677Z,17.64
2023-01-17T05:56:35.700Z,17.64
2023-01-17T06:01:37.372Z,17.67
2023-01-17T06:06:39.031Z,17.61
2023-01-17T06:11:40.707Z,17.67
2023-01-17T06:16:42.619Z,17.65
2023-01-17T06:21:44.285Z,17.65
2023-01-17T06:26:45.964Z,17.64
2023-01-17T06:31:47.704Z,17.63
2023-01-17T06:36:49.350Z,17.64
2023-01-17T06:41:51.035Z,17.65
2023-01-17T06:46:53.621Z,17.61
2023-01-17T06:51:55.442Z,17.61
2023-01-17T06:56:57.254Z,17.61
2023-01-17T07:01:59.286Z,17.62
2023-01-17T07:07:01.359Z,17.62
2023-01-17T07:12:03.787Z,17.63
2023-01-17T07:17:06.076Z,17.61
2023-01-17T07:22:11.104Z,17.59
2023-01-17T07:27:12.826Z,17.60
2023-01-17T07:32:14.498Z,17.59
2023-01-17T07:37:16.266Z,17.59
2023-01-17T07:42:17.972Z,17.54
2023-01-17T07:47:20.206Z,17.59
2023-01-17T07:52:21.907Z,17.57
2023-01-17T07:57:23.741Z,17.61
2023-01-17T08:02:25.478Z,17.58
2023-01-17T08:07:27.211Z,17.47
2023-01-17T08:12:29.726Z,17.40
2023-01-17T08:17:31.466Z,17.46
2023-01-17T08:22:33.499Z,17.47
2023-01-17T08:27:36.244Z,17.48
2023-01-17T08:32:40.946Z,17.47
2023-01-17T08:37:42.908Z,17.48
2023-01-17T08:42:44.828Z,17.46
2023-01-17T08:47:46.920Z,17.27
2023-01-17T08:52:49.614Z,17.45
2023-01-17T08:57:51.530Z,17.51
2023-01-17T09:02:53.951Z,17.51
2023-01-17T09:07:56.787Z,17.44
2023-01-17T09:12:58.443Z,17.50
2023-01-17T09:18:01.598Z,17.52
2023-01-17T09:23:03.911Z,17.56
2023-01-17T09:28:05.668Z,17.51
2023-01-17T09:33:07.324Z,17.53
2023-01-17T09:38:09.064Z,17.48
2023-01-17T09:43:44.491Z,17.34
2023-01-17T09:48:46.877Z,17.17
2023-01-17T09:53:49.084Z,17.12
2023-01-17T09:59:02.820Z,17.12
2023-01-17T10:04:10.616Z,17.10
2023-01-17T10:09:15.189Z,16.81
2023-01-17T10:14:22.618Z,16.92
2023-01-17T10:19:33.113Z,17.16
2023-01-17T10:25:13.273Z,17.22
2023-01-17T10:30:32.634Z,17.29
2023-01-17T10:35:39.202Z,17.15
2023-01-17T10:40:55.352Z,17.26
2023-01-17T10:45:57.627Z,17.34
2023-01-17T10:51:22.479Z,17.32
2023-01-17T10:56:28.386Z,17.35
2023-01-17T11:01:30.453Z,17.50
2023-01-17T11:06:33.480Z,17.51
2023-01-17T11:11:37.621Z,17.54
2023-01-17T11:16:39.642Z,17.44
2023-01-17T11:21:52.175Z,17.44
2023-01-17T11:26:54.139Z,17.43
2023-01-17T11:31:58.899Z,17.42
2023-01-17T11:37:20.897Z,17.46
2023-01-17T11:42:38.720Z,17.55
2023-01-17T11:47:40.486Z,17.59
2023-01-17T11:52:42.602Z,17.59
2023-01-17T11:57:50.580Z,17.54
2023-01-17T12:03:10.541Z,17.53
2023-01-17T12:08:32.232Z,17.47
2023-01-17T12:14:17.309Z,17.51
2023-01-17T12:19:55.489Z,17.47
2023-01-17T12:25:24.619Z,17.50
2023-01-17T12:30:41.431Z,17.50
2023-01-17T12:35:50.943Z,17.53
2023-01-17T12:41:03.895Z,17.58
2023-01-17T12:46:21.321Z,17.57
2023-01-17T12:51:29.514Z,17.60
2023-01-17T12:56:37.464Z,17.60
2023-01-17T13:01:43.458Z,17.64
2023-01-17T13:07:00.627Z,17.57
2023-01-17T13:12:07.177Z,17.60
2023-01-17T13:17:20.932Z,17.60
2023-01-17T13:22:27.169Z,17.61
2023-01-17T13:27:49.782Z,17.55
2023-01-17T13:33:03.662Z,17.60
2023-01-17T13:38:43.972Z,17.56
2023-01-17T13:44:04.585Z,17.62
2023-01-17T13:49:35.253Z,17.57
2023-01-17T13:54:54.802Z,17.55
2023-01-17T13:59:58.046Z,17.85
2023-01-17T14:05:05.523Z,17.69
2023-01-17T14:10:22.825Z,17.61
2023-01-17T14:15:29.956Z,17.58
2023-01-17T14:20:45.945Z,17.50
2023-01-17T14:25:47.665Z,17.50
2023-01-17T14:30:54.504Z,17.49
2023-01-17T14:36:04.847Z,17.46
2023-01-17T14:41:15.434Z,17.42
2023-01-17T14:46:26.672Z,17.40
2023-01-17T14:51:28.902Z,17.40
2023-01-17T14:56:31.281Z,17.37
2023-01-17T15:01:34.204Z,17.37
2023-01-17T15:06:41.087Z,17.22
2023-01-17T15:11:42.886Z,17.09
2023-01-17T15:16:44.649Z,17.05
2023-01-17T15:21:52.397Z,17.25
2023-01-17T15:26:54.924Z,17.28
2023-01-17T15:32:03.516Z,17.30
2023-01-17T15:37:32.743Z,17.31
2023-01-17T15:42:38.655Z,17.31
2023-01-17T15:47:40.482Z,17.31
2023-01-17T15:53:00.615Z,17.31
2023-01-17T15:58:04.319Z,17.33
2023-01-17T16:03:26.421Z,17.27
2023-01-17T16:08:40.193Z,17.31
2023-01-17T16:13:43.627Z,17.32
2023-01-17T16:18:46.742Z,17.35
2023-01-17T16:23:48.818Z,17.37
2023-01-17T16:28:51.385Z,17.52
2023-01-17T16:33:53.465Z,17.42
2023-01-17T16:38:55.126Z,17.42
2023-01-17T16:44:02.707Z,17.43
2023-01-17T16:49:05.051Z,17.39
2023-01-17T16:54:06.785Z,17.39
2023-01-17T16:59:08.705Z,17.42
2023-01-17T17:04:13.051Z,17.46
2023-01-17T17:09:14.739Z,17.34
2023-01-17T17:14:16.465Z,17.38
2023-01-17T17:19:19.455Z,17.38
2023-01-17T17:24:21.114Z,17.46
2023-01-17T17:29:22.771Z,17.67
2023-01-17T17:34:27.833Z,17.67
2023-01-17T17:39:29.508Z,17.66
2023-01-17T17:44:31.330Z,17.58
2023-01-17T17:49:33.035Z,17.54
2023-01-17T17:54:35.475Z,17.52
2023-01-17T17:59:37.268Z,17.59
2023-01-17T18:04:38.993Z,17.63
2023-01-17T18:09:40.853Z,17.62
2023-01-17T18:14:42.649Z,17.60
2023-01-17T18:19:46.250Z,17.67
2023-01-17T18:24:47.940Z,17.71
2023-01-17T18:29:49.660Z,17.71
2023-01-17T18:34:51.640Z,17.58
2023-01-17T18:39:53.314Z,17.48
2023-01-17T18:44:55.009Z,17.51
2023-01-17T18:49:56.869Z,17.49
2023-01-17T18:54:58.540Z,17.50
2023-01-17T19:00:02.431Z,17.60
2023-01-17T19:05:05.684Z,17.73
2023-01-17T19:10:07.933Z,17.72
2023-01-17T19:15:10.307Z,17.81
2023-01-17T19:20:13.417Z,17.78
2023-01-17T19:25:15.383Z,17.79
2023-01-17T19:30:17.712Z,17.85
2023-01-17T19:35:22.460Z,17.74
2023-01-17T19:40:24.280Z,17.67
2023-01-17T19:45:26.117Z,17.70
2023-01-17T19:50:27.839Z,17.63
2023-01-17T19:55:29.573Z,17.66
2023-01-17T20:00:45.902Z,17.72
2023-01-17T20:05:55.904Z,17.95
2023-01-17T20:11:02.459Z,17.93
2023-01-17T20:16:06.238Z,17.86
2023-01-17T20:21:10.346Z,17.85
2023-01-17T20:26:12.153Z,17.81
2023-01-17T20:31:16.556Z,17.82
2023-01-17T20:36:21.053Z,17.83
2023-01-17T20:41:30.203Z,17.81
2023-01-17T20:46:35.696Z,17.75
2023-01-17T20:51:40.221Z,17.85
2023-01-17T20:56:42.883Z,17.77
2023-01-17T21:01:45.339Z,17.77
2023-01-17T21:06:47.660Z,17.74
2023-01-17T21:11:49.494Z,17.75
2023-01-17T21:16:51.398Z,17.76
2023-01-17T21:21:53.262Z,17.74
2023-01-17T21:26:55.378Z,17.74
2023-01-17T21:31:57.121Z,17.77
2023-01-17T21:36:58.972Z,17.79
2023-01-17T21:42:00.636Z,17.78
2023-01-17T21:47:05.296Z,17.48
2023-01-17T21:52:07.126Z,17.54
2023-01-17T21:57:28.648Z,17.61
2023-01-17T22:02:30.378Z,17.66
2023-01-17T22:07:32.061Z,17.87
2023-01-17T22:12:34.098Z,17.80
2023-01-17T22:17:38.492Z,17.76
2023-01-17T22:22:40.246Z,17.72
2023-01-17T22:27:41.927Z,17.70
2023-01-17T22:32:43.583Z,17.73
2023-01-17T22:37:45.280Z,17.64
2023-01-17T22:42:47.385Z,17.61
2023-01-17T22:47:49.195Z,17.63
2023-01-17T22:52:50.849Z,17.60
2023-01-17T22:57:52.513Z,17.59
2023-01-17T23:02:54.225Z,17.57
2023-01-17T23:07:56.014Z,17.58
2023-01-17T23:12:57.966Z,17.58
2023-01-17T23:18:25.905Z,17.56
2023-01-17T23:23:27.606Z,17.60
2023-01-17T23:28:29.264Z,17.57
2023-01-17T23:33:30.921Z,17.59
2023-01-17T23:38:37.700Z,17.59
2023-01-17T23:43:39.377Z,17.54
2023-01-17T23:48:41.052Z,17.56
2023-01-17T23:53:42.953Z,17.54
2023-01-17T23:58:44.963Z,17.52
